createdAt,value
2018-11-21T00:00:33.490Z,97258.83
2018-11-21T00:01:38.363Z,97261.63
2018-11-21T00:02:42.441Z,97259.16
2018-11-21T00:03:46.730Z,97257.48
2018-11-21T00:04:51.160Z,97266.91
2018-11-21T00:05:55.613Z,97258.24
2018-11-21T00:07:00.160Z,97256.57
2018-11-21T00:08:05.047Z,97247.47
2018-11-21T00:09:11.835Z,97251.19
2018-11-21T00:10:15.048Z,97258.19
2018-11-21T00:11:19.189Z,97256.52
2018-11-21T00:12:23.779Z,97260.23
2018-11-21T00:13:27.914Z,97258.14
2018-11-21T00:14:32.477Z,97251.52
2018-11-21T00:15:36.764Z,97256.04
2018-11-21T00:16:42.467Z,97256.84
2018-11-21T00:17:49.947Z,97255.18
2018-11-21T00:19:00.673Z,97258.84
2018-11-21T00:19:59.621Z,97262.13
2018-11-21T00:21:04.427Z,97264.56
2018-11-21T00:22:08.696Z,97269.03
2018-11-21T00:23:12.890Z,97266.94
2018-11-21T00:24:17.054Z,97267.31
2018-11-21T00:25:21.275Z,97271.41
2018-11-21T00:26:25.979Z,97271.41
2018-11-21T00:27:30.485Z,97274.31
2018-11-21T00:28:34.580Z,97273.84
2018-11-21T00:29:38.692Z,97270.50
2018-11-21T00:30:42.813Z,97271.36
2018-11-21T00:31:47.002Z,97274.22
2018-11-21T00:32:51.107Z,97274.63
2018-11-21T00:33:55.947Z,97275.89
2018-11-21T00:35:02.908Z,97275.08
2018-11-21T00:36:07.142Z,97275.89
2018-11-21T00:37:11.303Z,97283.73
2018-11-21T00:38:15.484Z,97283.30
2018-11-21T00:39:19.918Z,97283.75
2018-11-21T00:40:24.409Z,97283.80
2018-11-21T00:41:29.043Z,97286.66
2018-11-21T00:42:33.606Z,97289.95
2018-11-21T00:43:40.777Z,97302.32
2018-11-21T00:44:45.078Z,97297.37
2018-11-21T00:45:49.181Z,97305.61
2018-11-21T00:46:53.759Z,97310.52
2018-11-21T00:47:57.855Z,97305.52
2018-11-21T00:49:02.358Z,97305.45
2018-11-21T00:50:06.677Z,97300.23
2018-11-21T00:51:10.811Z,97299.27
2018-11-21T00:52:15.266Z,97300.45
2018-11-21T00:53:20.214Z,97304.55
2018-11-21T00:54:24.341Z,97307.84
2018-11-21T00:55:29.833Z,97308.27
2018-11-21T00:56:34.015Z,97306.65
2018-11-21T00:57:39.349Z,97312.47
2018-11-21T00:58:44.028Z,97302.98
2018-11-21T00:59:49.393Z,97305.30
2018-11-21T01:00:57.309Z,97304.98
2018-11-21T01:02:01.399Z,97303.64
2018-11-21T01:03:08.039Z,97308.11
2018-11-21T01:04:12.253Z,97314.31
2018-11-21T01:05:16.369Z,97313.93
2018-11-21T01:06:20.865Z,97317.65
2018-11-21T01:07:24.966Z,97305.36
2018-11-21T01:08:29.066Z,97316.84
2018-11-21T01:09:33.263Z,97315.22
2018-11-21T01:10:37.396Z,97312.69
2018-11-21T01:11:41.815Z,97322.61
2018-11-21T01:12:47.206Z,97327.08
2018-11-21T01:13:52.345Z,97324.66
2018-11-21T01:14:56.521Z,97331.61
2018-11-21T01:16:00.615Z,97332.42
2018-11-21T01:17:05.324Z,97334.05
2018-11-21T01:18:09.482Z,97341.10
2018-11-21T01:19:13.859Z,97331.34
2018-11-21T01:20:18.026Z,97332.63
2018-11-21T01:21:22.462Z,97328.15
2018-11-21T01:22:26.562Z,97336.88
2018-11-21T01:23:30.655Z,97334.34
2018-11-21T01:24:35.297Z,97339.25
2018-11-21T01:25:39.822Z,97329.48
2018-11-21T01:26:44.256Z,97333.16
2018-11-21T01:27:48.358Z,97331.87
2018-11-21T01:28:52.819Z,97322.38
2018-11-21T01:29:56.934Z,97322.53
2018-11-21T01:31:03.968Z,97324.16
2018-11-21T01:32:08.377Z,97333.11
2018-11-21T01:33:13.429Z,97335.25
2018-11-21T01:34:17.646Z,97337.78
2018-11-21T01:35:21.794Z,97340.75
2018-11-21T01:36:26.464Z,97347.32
2018-11-21T01:37:30.576Z,97348.63
2018-11-21T01:38:36.817Z,97355.63
2018-11-21T01:39:41.366Z,97350.25
2018-11-21T01:40:46.145Z,97346.20
2018-11-21T01:42:55.104Z,97344.47
2018-11-21T01:43:59.217Z,97344.05
2018-11-21T01:45:04.027Z,97336.34
2018-11-21T01:46:08.929Z,97342.53
2018-11-21T01:47:13.084Z,97342.63
2018-11-21T01:48:18.118Z,97340.10
2018-11-21T01:49:22.538Z,97340.05
2018-11-21T01:50:28.087Z,97334.34
2018-11-21T01:51:34.058Z,97337.20
2018-11-21T01:52:39.047Z,97345.88
2018-11-21T01:53:43.657Z,97338.48
2018-11-21T01:54:48.297Z,97338.48
2018-11-21T01:55:52.867Z,97337.39
2018-11-21T01:56:57.437Z,97338.25
2018-11-21T01:58:01.976Z,97340.83
2018-11-21T01:59:08.109Z,97345.41
2018-11-21T02:00:13.345Z,97338.30
2018-11-21T02:01:17.611Z,97345.69
2018-11-21T02:02:22.223Z,97345.21
2018-11-21T02:03:26.574Z,97344.88
2018-11-21T02:04:31.081Z,97346.55
2018-11-21T02:05:35.400Z,97346.74
2018-11-21T02:06:39.784Z,97346.79
2018-11-21T02:07:52.967Z,97353.81
2018-11-21T02:08:57.645Z,97351.00
2018-11-21T02:10:01.891Z,97355.15
2018-11-21T02:11:07.115Z,97347.66
2018-11-21T02:12:11.630Z,97347.71
2018-11-21T02:13:15.921Z,97345.62
2018-11-21T02:14:21.984Z,97335.95
2018-11-21T02:15:26.520Z,97342.57
2018-11-21T02:16:31.135Z,97343.80
2018-11-21T02:17:35.854Z,97336.70
2018-11-21T02:18:40.860Z,97342.47
2018-11-21T02:19:45.262Z,97344.56
2018-11-21T02:20:49.893Z,97343.00
2018-11-21T02:21:54.176Z,97349.67
2018-11-21T02:22:58.311Z,97346.81
2018-11-21T02:24:02.801Z,97345.23
2018-11-21T02:25:07.503Z,97345.28
2018-11-21T02:26:11.814Z,97343.72
2018-11-21T02:27:16.128Z,97342.09
2018-11-21T02:28:21.160Z,97340.87
2018-11-21T02:29:26.329Z,97339.25
2018-11-21T02:30:30.863Z,97343.48
2018-11-21T02:31:35.725Z,97346.02
2018-11-21T02:32:40.814Z,97335.34
2018-11-21T02:33:45.647Z,97333.72
2018-11-21T02:34:50.583Z,97341.53
2018-11-21T02:35:54.884Z,97345.30
2018-11-21T02:36:59.308Z,97345.77
2018-11-21T02:38:03.808Z,97344.58
2018-11-21T02:39:09.009Z,97344.96
2018-11-21T02:40:13.272Z,97345.86
2018-11-21T02:41:17.494Z,97345.05
2018-11-21T02:42:22.333Z,97353.72
2018-11-21T02:43:27.084Z,97354.58
2018-11-21T02:44:31.442Z,97369.43
2018-11-21T02:45:36.136Z,97358.77
2018-11-21T02:46:41.136Z,97364.91
2018-11-21T02:47:45.237Z,97363.33
2018-11-21T02:48:50.243Z,97374.00
2018-11-21T02:49:54.709Z,97376.91
2018-11-21T02:50:59.330Z,97381.86
2018-11-21T02:52:03.499Z,97378.62
2018-11-21T02:53:07.720Z,97379.48
2018-11-21T02:54:11.833Z,97384.44
2018-11-21T02:55:16.032Z,97391.48
2018-11-21T02:56:21.032Z,97383.30
2018-11-21T02:57:27.791Z,97388.57
2018-11-21T02:58:31.973Z,97391.05
2018-11-21T02:59:36.591Z,97393.95
2018-11-21T03:00:41.090Z,97391.95
2018-11-21T03:01:45.726Z,97394.05
2018-11-21T03:02:50.692Z,97392.47
2018-11-21T03:03:54.824Z,97401.99
2018-11-21T03:04:59.282Z,97392.90
2018-11-21T03:06:03.376Z,97393.66
2018-11-21T03:07:07.626Z,97387.48
2018-11-21T03:08:11.797Z,97389.61
2018-11-21T03:09:16.326Z,97379.80
2018-11-21T03:10:21.441Z,97375.36
2018-11-21T03:11:26.221Z,97373.36
2018-11-21T03:12:32.846Z,97375.11
2018-11-21T03:13:37.145Z,97373.88
2018-11-21T03:14:41.268Z,97382.58
2018-11-21T03:15:47.552Z,97394.95
2018-11-21T03:16:52.002Z,97399.52
2018-11-21T03:17:56.180Z,97405.72
2018-11-21T03:19:00.392Z,97419.34
2018-11-21T03:20:04.781Z,97421.39
2018-11-21T03:21:08.928Z,97418.14
2018-11-21T03:22:13.533Z,97415.24
2018-11-21T03:23:18.074Z,97413.19
2018-11-21T03:24:22.603Z,97403.30
2018-11-21T03:25:26.711Z,97398.77
2018-11-21T03:26:31.365Z,97406.28
2018-11-21T03:27:35.947Z,97412.47
2018-11-21T03:28:40.460Z,97412.51
2018-11-21T03:29:44.998Z,97416.22
2018-11-21T03:30:49.550Z,97411.27
2018-11-21T03:31:54.089Z,97414.98
2018-11-21T03:32:58.623Z,97414.26
2018-11-21T03:34:02.839Z,97415.11
2018-11-21T03:35:07.510Z,97412.55
2018-11-21T03:36:11.812Z,97416.56
2018-11-21T03:37:15.938Z,97421.12
2018-11-21T03:38:20.099Z,97427.36
2018-11-21T03:39:25.528Z,97425.69
2018-11-21T03:40:29.674Z,97428.25
2018-11-21T03:41:33.767Z,97432.05
2018-11-21T03:42:38.034Z,97431.78
2018-11-21T03:43:42.546Z,97429.78
2018-11-21T03:44:46.766Z,97433.11
2018-11-21T03:45:51.018Z,97427.69
2018-11-21T03:46:55.613Z,97433.88
2018-11-21T03:47:59.821Z,97433.11
2018-11-21T03:49:06.080Z,97440.10
2018-11-21T03:50:11.498Z,97435.25
2018-11-21T03:51:16.062Z,97436.52
2018-11-21T03:52:21.047Z,97429.18
2018-11-21T03:53:25.191Z,97430.45
2018-11-21T03:54:29.781Z,97437.88
2018-11-21T03:55:34.213Z,97433.78
2018-11-21T03:56:38.807Z,97432.20
2018-11-21T03:57:43.400Z,97433.48
2018-11-21T03:58:47.987Z,97437.57
2018-11-21T03:59:52.977Z,97441.75
2018-11-21T04:00:57.195Z,97442.22
2018-11-21T04:02:01.568Z,97446.23
2018-11-21T04:03:06.183Z,97449.56
2018-11-21T04:04:10.588Z,97452.50
2018-11-21T04:05:15.431Z,97451.77
2018-11-21T04:06:19.594Z,97454.70
2018-11-21T04:07:24.232Z,97452.23
2018-11-21T04:08:28.434Z,97465.41
2018-11-21T04:09:32.640Z,97464.59
2018-11-21T04:10:37.763Z,97465.37
2018-11-21T04:11:42.346Z,97461.19
2018-11-21T04:12:46.833Z,97463.37
2018-11-21T04:13:50.948Z,97462.98
2018-11-21T04:14:56.221Z,97448.53
2018-11-21T04:16:00.367Z,97451.84
2018-11-21T04:17:04.570Z,97456.88
2018-11-21T04:18:09.139Z,97458.50
2018-11-21T04:19:13.306Z,97464.30
2018-11-21T04:20:17.424Z,97465.60
2018-11-21T04:21:21.788Z,97466.03
2018-11-21T04:22:26.134Z,97464.38
2018-11-21T04:23:30.608Z,97472.56
2018-11-21T04:24:35.766Z,97465.99
2018-11-21T04:25:42.951Z,97468.42
2018-11-21T04:26:47.567Z,97468.34
2018-11-21T04:27:52.378Z,97469.50
2018-11-21T04:28:56.467Z,97475.30
2018-11-21T04:30:00.891Z,97480.72
2018-11-21T04:31:05.128Z,97483.61
2018-11-21T04:32:09.278Z,97488.59
2018-11-21T04:33:14.111Z,97487.78
2018-11-21T04:34:18.478Z,97486.63
2018-11-21T04:35:22.706Z,97487.94
2018-11-21T04:36:27.774Z,97485.85
2018-11-21T04:37:32.395Z,97485.00
2018-11-21T04:38:36.909Z,97487.05
2018-11-21T04:39:41.125Z,97482.49
2018-11-21T04:40:47.708Z,97483.77
2018-11-21T04:41:52.329Z,97487.94
2018-11-21T04:42:56.483Z,97484.19
2018-11-21T04:44:00.754Z,97480.98
2018-11-21T04:45:06.528Z,97481.87
2018-11-21T04:46:11.082Z,97481.44
2018-11-21T04:47:16.029Z,97478.20
2018-11-21T04:48:20.778Z,97478.66
2018-11-21T04:49:24.947Z,97482.37
2018-11-21T04:50:29.168Z,97474.99
2018-11-21T04:51:33.267Z,97475.84
2018-11-21T04:52:37.377Z,97476.53
2018-11-21T04:53:44.067Z,97477.38
2018-11-21T04:54:48.569Z,97472.48
2018-11-21T04:55:52.918Z,97471.70
2018-11-21T04:56:57.123Z,97477.53
2018-11-21T04:58:01.269Z,97484.45
2018-11-21T04:59:05.501Z,97479.94
2018-11-21T05:00:10.851Z,97482.02
2018-11-21T05:01:15.114Z,97485.30
2018-11-21T05:02:19.394Z,97484.48
2018-11-21T05:03:23.759Z,97481.63
2018-11-21T05:04:27.885Z,97479.86
2018-11-21T05:05:33.027Z,97483.03
2018-11-21T05:06:37.777Z,97486.39
2018-11-21T05:07:43.124Z,97483.53
2018-11-21T05:08:47.679Z,97488.02
2018-11-21T05:09:51.918Z,97493.03
2018-11-21T05:10:56.311Z,97494.30
2018-11-21T05:12:00.581Z,97495.61
2018-11-21T05:13:05.385Z,97496.47
2018-11-21T05:14:09.596Z,97502.27
2018-11-21T05:15:14.052Z,97497.67
2018-11-21T05:16:18.374Z,97496.47
2018-11-21T05:17:22.592Z,97502.19
2018-11-21T05:18:27.258Z,97504.66
2018-11-21T05:19:31.841Z,97505.51
2018-11-21T05:20:35.959Z,97506.24
2018-11-21T05:21:43.014Z,97499.60
2018-11-21T05:22:47.176Z,97502.14
2018-11-21T05:23:52.180Z,97499.33
2018-11-21T05:24:56.281Z,97495.69
2018-11-21T05:26:00.742Z,97500.28
2018-11-21T05:27:04.835Z,97499.09
2018-11-21T05:28:11.158Z,97506.43
2018-11-21T05:29:19.930Z,97506.39
2018-11-21T05:30:24.032Z,97515.50
2018-11-21T05:31:28.500Z,97522.61
2018-11-21T05:32:33.007Z,97527.98
2018-11-21T05:33:37.591Z,97525.96
2018-11-21T05:34:42.013Z,97520.13
2018-11-21T05:35:49.241Z,97524.73
2018-11-21T05:36:53.816Z,97513.53
2018-11-21T05:37:58.001Z,97513.14
2018-11-21T05:39:02.129Z,97513.70
2018-11-21T05:40:09.750Z,97512.51
2018-11-21T05:41:13.815Z,97521.23
2018-11-21T05:42:18.000Z,97517.06
2018-11-21T05:43:22.631Z,97519.43
2018-11-21T05:44:31.397Z,97524.76
2018-11-21T05:45:33.504Z,97521.48
2018-11-21T05:46:41.339Z,97518.61
2018-11-21T05:47:44.094Z,97519.08
2018-11-21T05:48:48.345Z,97518.94
2018-11-21T05:49:52.536Z,97509.40
2018-11-21T05:50:57.492Z,97510.59
2018-11-21T05:52:01.626Z,97510.59
2018-11-21T05:53:05.729Z,97516.63
2018-11-21T05:54:09.983Z,97514.27
2018-11-21T05:55:14.199Z,97517.31
2018-11-21T05:56:21.255Z,97514.91
2018-11-21T05:57:25.773Z,97522.39
2018-11-21T05:58:30.239Z,97518.69
2018-11-21T05:59:34.861Z,97523.31
2018-11-21T06:00:42.086Z,97528.36
2018-11-21T06:01:46.189Z,97526.34
2018-11-21T06:02:50.275Z,97532.98
2018-11-21T06:03:57.404Z,97528.91
2018-11-21T06:05:04.142Z,97531.75
2018-11-21T06:06:10.075Z,97535.91
2018-11-21T06:07:14.556Z,97535.91
2018-11-21T06:08:19.206Z,97537.47
2018-11-21T06:09:23.334Z,97528.39
2018-11-21T06:10:28.419Z,97524.72
2018-11-21T06:11:32.617Z,97530.58
2018-11-21T06:12:37.150Z,97529.38
2018-11-21T06:13:41.350Z,97530.19
2018-11-21T06:14:47.337Z,97532.66
2018-11-21T06:15:52.029Z,97537.20
2018-11-21T06:16:56.910Z,97534.34
2018-11-21T06:18:01.292Z,97531.87
2018-11-21T06:19:06.179Z,97535.20
2018-11-21T06:20:11.553Z,97539.36
2018-11-21T06:21:15.813Z,97540.98
2018-11-21T06:22:23.211Z,97542.15
2018-11-21T06:23:27.711Z,97539.65
2018-11-21T06:24:34.997Z,97539.65
2018-11-21T06:25:39.453Z,97540.84
2018-11-21T06:26:43.781Z,97541.70
2018-11-21T06:27:47.861Z,97542.97
2018-11-21T06:28:51.989Z,97547.09
2018-11-21T06:29:56.697Z,97547.94
2018-11-21T06:44:15.218Z,97564.33
2018-11-21T06:45:23.636Z,97566.50
2018-11-21T06:46:27.796Z,97570.21
2018-11-21T06:47:33.758Z,97569.39
2018-11-21T06:48:40.363Z,97567.77
2018-11-21T06:49:45.081Z,97576.03
2018-11-21T06:50:50.538Z,97579.73
2018-11-21T06:51:55.085Z,97585.87
2018-11-21T06:52:59.964Z,97593.23
2018-11-21T06:54:05.649Z,97593.66
2018-11-21T06:55:09.775Z,97592.77
2018-11-21T06:56:15.178Z,97593.59
2018-11-21T06:57:19.356Z,97598.86
2018-11-21T06:58:23.481Z,97591.45
2018-11-21T06:59:33.018Z,97593.91
2018-11-21T07:00:35.990Z,97591.83
2018-11-21T07:01:40.120Z,97593.46
2018-11-21T07:02:44.259Z,97602.86
2018-11-21T07:03:48.403Z,97604.06
2018-11-21T07:04:53.104Z,97615.58
2018-11-21T07:05:57.223Z,97617.30
2018-11-21T07:07:01.341Z,97620.16
2018-11-21T07:08:06.436Z,97625.06
2018-11-21T07:09:11.031Z,97626.30
2018-11-21T07:10:16.085Z,97634.11
2018-11-21T07:11:20.225Z,97634.89
2018-11-21T07:12:24.389Z,97637.39
2018-11-21T07:13:29.315Z,97638.23
2018-11-21T07:14:33.919Z,97648.13
2018-11-21T07:15:39.576Z,97647.70
2018-11-21T07:16:42.700Z,97644.39
2018-11-21T07:17:47.337Z,97639.05
2018-11-21T07:18:53.402Z,97643.58
2018-11-21T07:20:00.508Z,97640.71
2018-11-21T07:21:05.383Z,97637.39
2018-11-21T07:22:10.176Z,97641.16
2018-11-21T07:23:14.852Z,97645.23
2018-11-21T07:24:19.184Z,97638.63
2018-11-21T07:25:24.379Z,97635.31
2018-11-21T07:26:28.681Z,97634.11
2018-11-21T07:27:33.261Z,97638.66
2018-11-21T07:28:37.354Z,97641.55
2018-11-21T07:29:46.744Z,97645.66
2018-11-21T07:30:51.330Z,97654.67
2018-11-21T07:31:58.304Z,97657.95
2018-11-21T07:33:02.535Z,97662.44
2018-11-21T07:34:07.161Z,97664.85
2018-11-21T07:35:14.642Z,97666.05
2018-11-21T07:36:15.982Z,97667.45
2018-11-21T07:37:21.491Z,97675.09
2018-11-21T07:38:25.795Z,97673.05
2018-11-21T07:39:30.013Z,97674.25
2018-11-21T07:40:34.653Z,97672.11
2018-11-21T07:41:40.819Z,97672.02
2018-11-21T07:42:43.994Z,97671.55
2018-11-21T07:43:48.449Z,97670.58
2018-11-21T07:44:52.804Z,97676.31
2018-11-21T07:45:59.458Z,97678.30
2018-11-21T07:47:04.635Z,97669.57
2018-11-21T07:48:10.247Z,97673.60
2018-11-21T07:49:15.425Z,97675.52
2018-11-21T07:50:21.193Z,97666.72
2018-11-21T07:51:25.912Z,97676.55
2018-11-21T07:52:31.367Z,97679.58
2018-11-21T07:53:36.322Z,97681.70
2018-11-21T07:54:41.044Z,97681.98
2018-11-21T07:55:45.358Z,97681.89
2018-11-21T07:57:08.644Z,97692.06
2018-11-21T07:58:21.022Z,97689.20
2018-11-21T07:59:25.191Z,97689.63
2018-11-21T08:00:41.143Z,97685.70
2018-11-21T08:01:53.972Z,97687.78
2018-11-21T08:02:58.582Z,97697.65
2018-11-21T08:04:06.623Z,97702.62
2018-11-21T08:05:23.812Z,97705.07
2018-11-21T08:06:43.140Z,97709.69
2018-11-21T08:08:05.429Z,97710.22
2018-11-21T08:09:40.436Z,97709.34
2018-11-21T08:11:18.416Z,97712.10
2018-11-21T08:12:45.515Z,97707.55
2018-11-21T08:14:14.486Z,97711.52
2018-11-21T08:15:49.535Z,97714.30
2018-11-21T08:17:17.789Z,97714.44
2018-11-21T08:18:44.206Z,97717.41
2018-11-21T08:20:06.171Z,97706.91
2018-11-21T08:21:34.994Z,97713.03
2018-11-21T08:22:59.733Z,97710.20
2018-11-21T08:24:14.840Z,97716.53
2018-11-21T08:25:36.090Z,97710.34
2018-11-21T08:27:10.881Z,97719.36
2018-11-21T08:28:29.287Z,97718.35
2018-11-21T08:29:34.092Z,97721.05
2018-11-21T08:30:41.884Z,97728.31
2018-11-21T08:31:47.055Z,97727.05
2018-11-21T08:32:51.220Z,97726.78
2018-11-21T08:33:55.410Z,97731.38
2018-11-21T08:35:03.701Z,97729.25
2018-11-21T08:36:08.390Z,97734.59
2018-11-21T08:37:11.823Z,97726.03
2018-11-21T08:38:16.851Z,97726.91
2018-11-21T08:39:21.329Z,97728.99
2018-11-21T08:40:26.082Z,97729.38
2018-11-21T08:41:30.517Z,97732.97
2018-11-21T08:42:37.984Z,97728.67
2018-11-21T08:43:42.160Z,97717.51
2018-11-21T08:44:46.457Z,97720.37
2018-11-21T08:45:51.022Z,97723.45
2018-11-21T08:46:56.216Z,97727.06
2018-11-21T08:48:00.369Z,97720.28
2018-11-21T08:49:05.429Z,97727.32
2018-11-21T08:50:12.860Z,97726.19
2018-11-21T08:51:20.022Z,97735.63
2018-11-21T08:52:24.214Z,97733.90
2018-11-21T08:53:28.385Z,97739.17
2018-11-21T08:54:32.599Z,97739.20
2018-11-21T08:55:37.548Z,97737.16
2018-11-21T08:56:41.803Z,97735.38
2018-11-21T08:57:46.018Z,97740.74
2018-11-21T08:58:50.471Z,97734.81
2018-11-21T08:59:55.097Z,97738.36
2018-11-21T09:00:59.308Z,97736.55
2018-11-21T09:02:03.917Z,97740.66
2018-11-21T09:03:10.931Z,97737.44
2018-11-21T09:04:15.121Z,97740.55
2018-11-21T09:05:19.538Z,97741.29
2018-11-21T09:06:23.694Z,97744.29
2018-11-21T09:07:28.341Z,97740.52
2018-11-21T09:08:34.538Z,97747.61
2018-11-21T09:09:40.713Z,97747.22
2018-11-21T09:10:45.909Z,97753.44
2018-11-21T09:11:53.278Z,97750.05
2018-11-21T09:12:59.558Z,97751.06
2018-11-21T09:14:03.695Z,97751.81
2018-11-21T09:15:09.106Z,97752.17
2018-11-21T09:16:14.195Z,97749.66
2018-11-21T09:17:18.427Z,97756.62
2018-11-21T09:18:24.729Z,97757.83
2018-11-21T09:19:31.732Z,97752.03
2018-11-21T09:20:55.001Z,97752.11
2018-11-21T09:21:59.563Z,97749.95
2018-11-21T09:23:12.265Z,97752.00
2018-11-21T09:24:16.526Z,97752.92
2018-11-21T09:25:20.653Z,97751.25
2018-11-21T09:26:25.221Z,97749.66
2018-11-21T09:27:31.941Z,97752.56
2018-11-21T09:28:39.285Z,97748.72
2018-11-21T09:29:51.632Z,97750.27
2018-11-21T09:30:56.938Z,97752.22
2018-11-21T09:32:03.876Z,97755.78
2018-11-21T09:33:09.440Z,97753.59
2018-11-21T09:34:16.040Z,97747.68
2018-11-21T09:35:20.699Z,97747.06
2018-11-21T09:36:28.106Z,97749.60
2018-11-21T09:37:32.940Z,97743.88
2018-11-21T09:38:41.808Z,97747.19
2018-11-21T09:40:00.822Z,97751.23
2018-11-21T09:41:05.375Z,97751.55
2018-11-21T09:42:17.420Z,97754.75
2018-11-21T09:43:22.211Z,97757.22
2018-11-21T09:44:27.113Z,97767.09
2018-11-21T09:45:31.755Z,97769.85
2018-11-21T09:46:42.217Z,97762.27
2018-11-21T09:47:53.993Z,97768.16
2018-11-21T09:48:58.471Z,97767.67
2018-11-21T09:50:03.148Z,97773.83
2018-11-21T09:51:07.228Z,97769.00
2018-11-21T09:52:12.093Z,97773.14
2018-11-21T09:53:16.312Z,97777.56
2018-11-21T09:54:20.457Z,97783.27
2018-11-21T09:55:24.730Z,97782.78
2018-11-21T09:56:28.874Z,97773.72
2018-11-21T09:57:35.925Z,97781.11
2018-11-21T09:58:40.062Z,97782.06
2018-11-21T09:59:46.247Z,97784.67
2018-11-21T10:01:06.296Z,97785.19
2018-11-21T10:02:30.827Z,97785.42
2018-11-21T10:03:37.181Z,97773.78
2018-11-21T10:04:41.453Z,97778.95
2018-11-21T10:05:48.500Z,97775.70
2018-11-21T10:06:55.504Z,97772.34
2018-11-21T10:08:04.052Z,97775.87
2018-11-21T10:09:28.015Z,97773.72
2018-11-21T10:10:32.950Z,97771.11
2018-11-21T10:11:38.538Z,97775.09
2018-11-21T10:12:42.999Z,97777.14
2018-11-21T10:13:47.655Z,97776.27
2018-11-21T10:14:51.800Z,97783.01
2018-11-21T10:15:56.624Z,97778.02
2018-11-21T10:17:01.497Z,97781.41
2018-11-21T10:18:06.454Z,97786.20
2018-11-21T10:19:10.576Z,97793.63
2018-11-21T10:20:14.663Z,97792.42
2018-11-21T10:21:20.273Z,97794.44
2018-11-21T10:22:27.631Z,97788.77
2018-11-21T10:23:31.911Z,97792.22
2018-11-21T10:24:36.032Z,97791.44
2018-11-21T10:25:40.521Z,97799.61
2018-11-21T10:26:48.439Z,97797.56
2018-11-21T10:27:54.150Z,97798.89
2018-11-21T10:28:57.352Z,97805.53
2018-11-21T10:30:01.647Z,97803.36
2018-11-21T10:31:06.819Z,97811.56
2018-11-21T10:32:11.044Z,97807.72
2018-11-21T10:33:15.384Z,97810.78
2018-11-21T10:34:22.748Z,97808.70
2018-11-21T10:35:30.261Z,97817.72
2018-11-21T10:36:34.371Z,97821.73
2018-11-21T10:37:38.654Z,97813.45
2018-11-21T10:38:42.774Z,97800.30
2018-11-21T10:39:47.832Z,97807.85
2018-11-21T10:40:52.331Z,97812.44
2018-11-21T10:41:56.434Z,97813.98
2018-11-21T10:43:00.621Z,97816.72
2018-11-21T10:44:06.480Z,97813.78
2018-11-21T10:45:10.881Z,97814.17
2018-11-21T10:46:15.573Z,97820.27
2018-11-21T10:47:19.974Z,97816.06
2018-11-21T10:48:24.662Z,97817.82
2018-11-21T10:49:30.572Z,97819.05
2018-11-21T10:50:33.080Z,97817.30
2018-11-21T10:51:37.758Z,97813.77
2018-11-21T10:52:42.293Z,97820.41
2018-11-21T10:53:46.832Z,97812.77
2018-11-21T10:54:57.737Z,97812.73
2018-11-21T10:56:07.263Z,97813.65
2018-11-21T10:57:12.455Z,97818.38
2018-11-21T10:58:18.933Z,97819.19
2018-11-21T10:59:23.937Z,97820.33
2018-11-21T11:00:46.223Z,97819.19
2018-11-21T11:02:07.848Z,97820.72
2018-11-21T11:03:19.202Z,97819.48
2018-11-21T11:04:48.749Z,97819.45
2018-11-21T11:06:11.380Z,97813.55
2018-11-21T11:07:39.449Z,97818.80
2018-11-21T11:09:01.190Z,97813.67
2018-11-21T11:10:24.862Z,97816.22
2018-11-21T11:11:46.096Z,97812.39
2018-11-21T11:13:18.193Z,97806.92
2018-11-21T11:14:50.503Z,97805.92
2018-11-21T11:16:12.297Z,97799.61
2018-11-21T11:17:41.629Z,97802.70
2018-11-21T11:19:13.450Z,97811.08
2018-11-21T11:20:39.340Z,97809.88
2018-11-21T11:22:14.418Z,97813.16
2018-11-21T11:23:40.909Z,97816.33
2018-11-21T11:25:05.152Z,97813.36
2018-11-21T11:26:29.860Z,97821.08
2018-11-21T11:28:14.617Z,97821.23
2018-11-21T11:29:34.945Z,97816.84
